Time;durP1;ratioP1;P1;durP2;ratioP2;P2;SDS_P1;SDS_P2;PMS_P1;PMS_P2;Temp;Humidity;BMP_temperature;BMP_pressure;BME280_temperature;BME280_humidity;BME280_pressure;Samples;Min_cycle;Max_cycle;Signal;HPM_P1;HPM_P2
2021/07/08 00:00:50;;;;;;;12.95;8.25;;;;;;;;;;4399148;32;20168;-81
2021/07/08 00:03:25;;;;;;;11.88;8.15;;;;;;;;;;4399884;32;20207;-81
2021/07/08 00:05:53;;;;;;;17.73;8.98;;;;;;;;;;4390699;32;20529;-81
2021/07/08 00:08:18;;;;;;;12.32;8.38;;;;;;;;;;4385211;32;20158;-80
2021/07/08 00:10:55;;;;;;;14.87;9.02;;;;;;;;;;4394696;32;20181;-80
2021/07/08 00:13:25;;;;;;;15.68;9.00;;;;;;;;;;4392847;32;20579;-81
2021/07/08 00:16:07;;;;;;;;;;;;;;;;;;;;;
2021/07/08 00:18:53;;;;;;;18.48;9.63;;;;;;;;;;4402559;32;20150;-81
2021/07/08 00:24:28;;;;;;;19.60;9.95;;;;;;;;;;4406739;32;20173;-83
2021/07/08 00:29:48;;;;;;;13.85;9.90;;;;;;;;;;4381882;32;20146;-84
2021/07/08 00:32:15;;;;;;;16.92;11.45;;;;;;;;;;4406597;32;20491;-83
2021/07/08 00:34:40;;;;;;;15.57;10.75;;;;;;;;;;4388755;32;20458;-82
2021/07/08 00:37:06;;;;;;;17.15;10.07;;;;;;;;;;4406634;32;20256;-82
2021/07/08 00:39:56;;;;;;;18.95;10.93;;;;;;;;;;4407064;32;20257;-82
2021/07/08 00:42:31;;;;;;;16.50;9.32;;;;;;;;;;4390971;32;20157;-81
2021/07/08 00:44:56;;;;;;;14.00;9.60;;;;;;;;;;4407263;32;20183;-82
2021/07/08 00:47:22;;;;;;;17.95;11.30;;;;;;;;;;4400986;32;20170;-81
2021/07/08 00:49:47;;;;;;;16.50;10.95;;;;;;;;;;4392743;32;20181;-82
2021/07/08 00:52:12;;;;;;;21.35;12.07;;;;;;;;;;4392350;32;20173;-81
2021/07/08 00:54:38;;;;;;;22.13;11.38;;;;;;;;;;4407054;32;20510;-81
2021/07/08 00:57:04;;;;;;;18.85;12.35;;;;;;;;;;4406437;32;20217;-81
2021/07/08 00:59:32;;;;;;;17.95;12.00;;;;;;;;;;4400236;32;20147;-82
2021/07/08 01:01:58;;;;;;;18.27;11.25;;;;;;;;;;4391710;32;20130;-82
2021/07/08 01:04:24;;;;;;;18.62;11.65;;;;;;;;;;4391979;32;20166;-81
2021/07/08 01:06:49;;;;;;;16.12;11.80;;;;;;;;;;4391731;32;20131;-81
2021/07/08 01:09:18;;;;;;;18.50;12.63;;;;;;;;;;4391006;32;20492;-81
2021/07/08 01:11:46;;;;;;;23.83;12.93;;;;;;;;;;4391722;32;20130;-81
2021/07/08 01:14:15;;;;;;;18.23;13.35;;;;;;;;;;4391284;32;20204;-81
2021/07/08 01:16:41;;;;;;;17.48;11.70;;;;;;;;;;4390428;32;20188;-80
2021/07/08 01:19:08;;;;;;;21.35;14.40;;;;;;;;;;4391724;32;20532;-81
2021/07/08 01:21:37;;;;;;;23.20;14.10;;;;;;;;;;4391059;32;20162;-80
2021/07/08 01:24:04;;;;;;;18.98;13.35;;;;;;;;;;4389375;32;20535;-81
2021/07/08 01:26:32;;;;;;;21.45;13.35;;;;;;;;;;4390771;32;20146;-81
2021/07/08 01:29:07;;;;;;;18.95;13.30;;;;;;;;;;4391310;32;20196;-81
2021/07/08 01:31:50;;;;;;;22.58;12.35;;;;;;;;;;4390614;32;20259;-80
2021/07/08 01:34:15;;;;;;;17.12;12.45;;;;;;;;;;4391147;32;20177;-80
2021/07/08 01:36:52;;;;;;;20.88;13.25;;;;;;;;;;4391261;32;20450;-80
2021/07/08 01:39:19;;;;;;;19.85;12.05;;;;;;;;;;4391122;32;20537;-80
2021/07/08 01:41:47;;;;;;;19.60;13.52;;;;;;;;;;4390946;32;20134;-81
2021/07/08 01:44:12;;;;;;;21.85;13.10;;;;;;;;;;4390553;32;20215;-81
2021/07/08 01:46:41;;;;;;;20.55;12.63;;;;;;;;;;4391936;32;20524;-80
2021/07/08 01:49:09;;;;;;;18.75;11.88;;;;;;;;;;4391215;32;20196;-80
2021/07/08 01:51:35;;;;;;;21.67;12.98;;;;;;;;;;4391758;32;20130;-80
2021/07/08 01:54:01;;;;;;;18.62;12.30;;;;;;;;;;4391512;32;20158;-80
2021/07/08 01:56:26;;;;;;;20.05;12.45;;;;;;;;;;4391338;32;20158;-80
2021/07/08 02:02:02;;;;;;;17.77;10.88;;;;;;;;;;4406316;32;20168;-80
2021/07/08 02:04:28;;;;;;;16.48;10.48;;;;;;;;;;4406157;32;20134;-80
2021/07/08 02:07:02;;;;;;;19.27;12.07;;;;;;;;;;4406744;32;20157;-80
2021/07/08 02:09:27;;;;;;;16.50;11.32;;;;;;;;;;4392217;32;20618;-80
2021/07/08 02:11:56;;;;;;;14.87;10.60;;;;;;;;;;4405630;32;20130;-81
2021/07/08 02:14:21;;;;;;;18.35;11.70;;;;;;;;;;4392027;32;20185;-79
2021/07/08 02:16:47;;;;;;;16.42;10.55;;;;;;;;;;4404532;32;20563;-80
2021/07/08 02:19:15;;;;;;;16.70;11.52;;;;;;;;;;4392042;32;20607;-80
2021/07/08 02:21:40;;;;;;;20.65;12.13;;;;;;;;;;4391852;32;20491;-81
2021/07/08 02:27:27;;;;;;;17.95;11.07;;;;;;;;;;4360158;32;20166;-81
2021/07/08 02:29:52;;;;;;;17.40;11.20;;;;;;;;;;4398122;32;20657;-80
2021/07/08 02:32:48;;;;;;;16.85;10.95;;;;;;;;;;4405512;32;20152;-81
2021/07/08 02:35:14;;;;;;;13.27;9.23;;;;;;;;;;4388010;32;20189;-80
2021/07/08 02:37:39;;;;;;;13.10;9.88;;;;;;;;;;4393977;32;20193;-80
2021/07/08 02:40:28;;;;;;;15.73;10.80;;;;;;;;;;4370850;32;20665;-80
2021/07/08 02:42:54;;;;;;;14.50;9.68;;;;;;;;;;4395932;32;20290;-80
2021/07/08 02:45:20;;;;;;;13.57;9.80;;;;;;;;;;4396258;32;20147;-80
2021/07/08 02:47:49;;;;;;;15.88;9.70;;;;;;;;;;4405389;32;20567;-80
2021/07/08 02:50:18;;;;;;;14.18;9.27;;;;;;;;;;4399619;32;20142;-80
2021/07/08 02:52:50;;;;;;;15.52;9.60;;;;;;;;;;4390427;32;20126;-80
2021/07/08 02:55:16;;;;;;;14.95;9.10;;;;;;;;;;4390234;32;20157;-79
2021/07/08 02:57:51;;;;;;;13.15;9.05;;;;;;;;;;4390110;32;20201;-80
2021/07/08 03:00:18;;;;;;;13.68;9.60;;;;;;;;;;4389976;32;20154;-80
2021/07/08 03:05:28;;;;;;;18.23;11.12;;;;;;;;;;4390244;32;20181;-80
2021/07/08 03:07:54;;;;;;;18.15;11.52;;;;;;;;;;4389854;32;20475;-80
2021/07/08 03:10:21;;;;;;;18.70;11.65;;;;;;;;;;4389746;32;20131;-80
2021/07/08 03:12:49;;;;;;;16.98;12.43;;;;;;;;;;4389985;32;20137;-80
2021/07/08 03:15:15;;;;;;;16.52;10.75;;;;;;;;;;4389720;32;20134;-80
2021/07/08 03:17:40;;;;;;;16.83;10.82;;;;;;;;;;4389744;32;20169;-79
2021/07/08 03:20:07;;;;;;;17.75;11.05;;;;;;;;;;4389909;32;20157;-80
2021/07/08 03:22:33;;;;;;;13.62;9.80;;;;;;;;;;4390516;32;20193;-81
2021/07/08 03:24:58;;;;;;;21.55;12.25;;;;;;;;;;4390574;32;20142;-81
2021/07/08 03:27:33;;;;;;;;;;;;;;;;;;;;;
2021/07/08 03:29:59;;;;;;;19.00;11.68;;;;;;;;;;4380595;32;20162;-81
2021/07/08 03:32:25;;;;;;;18.65;12.23;;;;;;;;;;4389467;32;20493;-81
2021/07/08 03:34:50;;;;;;;20.05;11.95;;;;;;;;;;4389867;32;20556;-80
2021/07/08 03:37:21;;;;;;;19.77;12.30;;;;;;;;;;4390081;32;20131;-80
2021/07/08 03:39:46;;;;;;;17.77;12.25;;;;;;;;;;4391922;32;20142;-80
2021/07/08 03:42:12;;;;;;;18.45;12.48;;;;;;;;;;4391169;32;20614;-81
2021/07/08 03:44:42;;;;;;;18.37;12.80;;;;;;;;;;4392379;32;20151;-80
2021/07/08 03:47:08;;;;;;;18.70;13.18;;;;;;;;;;4392423;32;20564;-80
2021/07/08 03:49:33;;;;;;;20.33;12.82;;;;;;;;;;4392173;32;20130;-80
2021/07/08 03:52:00;;;;;;;18.95;12.68;;;;;;;;;;4392003;32;20514;-80
2021/07/08 03:54:26;;;;;;;19.27;13.10;;;;;;;;;;4392527;32;20206;-81
2021/07/08 03:56:57;;;;;;;21.12;13.50;;;;;;;;;;4392557;32;20161;-80
2021/07/08 03:59:26;;;;;;;20.80;12.50;;;;;;;;;;4392043;32;20194;-80
2021/07/08 04:01:51;;;;;;;20.52;12.48;;;;;;;;;;4392086;32;20185;-80
2021/07/08 04:04:16;;;;;;;24.52;13.77;;;;;;;;;;4391365;32;20224;-80
2021/07/08 04:06:44;;;;;;;23.05;12.93;;;;;;;;;;4392322;32;20165;-80
2021/07/08 04:09:09;;;;;;;17.00;11.77;;;;;;;;;;4392216;32;20138;-80
2021/07/08 04:11:41;;;;;;;18.92;13.38;;;;;;;;;;4392118;32;20190;-80
2021/07/08 04:14:06;;;;;;;16.33;12.55;;;;;;;;;;4391161;32;20633;-80
2021/07/08 04:16:31;;;;;;;13.93;11.48;;;;;;;;;;4392218;32;20174;-81
2021/07/08 04:19:04;;;;;;;19.95;13.35;;;;;;;;;;4391815;32;20158;-81
2021/07/08 04:21:30;;;;;;;18.70;12.43;;;;;;;;;;4390849;32;20162;-79
2021/07/08 04:23:55;;;;;;;19.83;12.90;;;;;;;;;;4388262;32;20288;-80
2021/07/08 04:26:21;;;;;;;17.05;12.30;;;;;;;;;;4390890;32;20522;-81
2021/07/08 04:28:46;;;;;;;20.80;13.15;;;;;;;;;;4378797;32;20163;-81
2021/07/08 04:31:15;;;;;;;23.10;13.93;;;;;;;;;;4395327;32;20869;-81
2021/07/08 04:33:40;;;;;;;22.08;13.77;;;;;;;;;;4384533;32;20165;-79
2021/07/08 04:36:06;;;;;;;18.45;13.07;;;;;;;;;;4407418;32;20135;-81
2021/07/08 04:38:31;;;;;;;20.83;13.15;;;;;;;;;;4390338;32;20174;-79
2021/07/08 04:40:57;;;;;;;19.98;13.00;;;;;;;;;;4403921;32;20211;-82
2021/07/08 04:43:22;;;;;;;20.08;12.65;;;;;;;;;;4406228;32;20185;-80
2021/07/08 04:45:55;;;;;;;19.85;12.23;;;;;;;;;;4406732;32;20157;-80
2021/07/08 04:48:25;;;;;;;22.83;12.57;;;;;;;;;;4407288;32;20134;-81
2021/07/08 04:50:51;;;;;;;23.58;13.18;;;;;;;;;;4405595;32;20153;-80
2021/07/08 04:53:16;;;;;;;18.85;12.35;;;;;;;;;;4406436;32;20192;-79
2021/07/08 04:55:45;;;;;;;19.50;13.30;;;;;;;;;;4392992;32;20206;-80
2021/07/08 04:58:10;;;;;;;14.35;11.12;;;;;;;;;;4406544;32;20142;-80
2021/07/08 05:01:18;;;;;;;15.40;11.38;;;;;;;;;;4400326;32;20212;-80
2021/07/08 05:03:24;;;;;;;18.85;11.73;;;;;;;;;;4392837;32;20197;-80
2021/07/08 05:05:59;;;;;;;16.17;11.50;;;;;;;;;;4400939;32;20146;-80
2021/07/08 05:08:31;;;;;;;15.82;11.63;;;;;;;;;;4406376;32;20515;-80
2021/07/08 05:11:11;;;;;;;17.95;11.50;;;;;;;;;;4405782;32;20511;-80
2021/07/08 05:13:36;;;;;;;17.87;11.75;;;;;;;;;;4406835;32;20621;-80
2021/07/08 05:16:04;;;;;;;19.02;11.65;;;;;;;;;;4406565;32;20138;-81
2021/07/08 05:18:32;;;;;;;17.05;10.77;;;;;;;;;;4406469;32;20134;-81
2021/07/08 05:20:59;;;;;;;18.77;10.90;;;;;;;;;;4391679;32;20157;-81
2021/07/08 05:23:32;;;;;;;15.00;11.10;;;;;;;;;;4406270;32;20162;-81
2021/07/08 05:25:57;;;;;;;17.23;10.57;;;;;;;;;;4405922;32;20199;-80
2021/07/08 05:28:22;;;;;;;14.73;10.60;;;;;;;;;;4406058;32;20665;-81
2021/07/08 05:30:50;;;;;;;18.10;10.60;;;;;;;;;;4406304;32;20130;-80
2021/07/08 05:33:16;;;;;;;18.33;11.18;;;;;;;;;;4392227;32;20231;-81
2021/07/08 05:35:41;;;;;;;15.25;10.38;;;;;;;;;;4398124;32;20150;-81
2021/07/08 05:38:06;;;;;;;17.25;10.60;;;;;;;;;;4389744;32;20166;-82
2021/07/08 05:40:32;;;;;;;18.67;10.20;;;;;;;;;;4389645;32;20197;-80
2021/07/08 05:42:57;;;;;;;20.52;10.98;;;;;;;;;;4389113;32;20158;-78
2021/07/08 05:45:23;;;;;;;17.30;11.35;;;;;;;;;;4390526;32;20135;-78
2021/07/08 05:47:48;;;;;;;22.15;12.02;;;;;;;;;;4390579;32;20564;-78
2021/07/08 05:50:13;;;;;;;21.20;10.85;;;;;;;;;;4390934;32;20134;-81
2021/07/08 05:52:38;;;;;;;19.05;11.45;;;;;;;;;;4395193;32;20205;-80
2021/07/08 05:55:13;;;;;;;21.55;11.52;;;;;;;;;;4405268;32;20238;-81
2021/07/08 05:57:46;;;;;;;15.18;10.07;;;;;;;;;;4402687;32;20262;-80
2021/07/08 06:00:12;;;;;;;19.08;11.68;;;;;;;;;;4390000;32;20180;-80
2021/07/08 06:02:40;;;;;;;18.10;10.82;;;;;;;;;;4390051;32;20201;-81
2021/07/08 06:05:06;;;;;;;14.05;9.70;;;;;;;;;;4389836;32;20158;-80
2021/07/08 06:07:42;;;;;;;17.87;10.07;;;;;;;;;;4398832;32;20174;-81
2021/07/08 06:10:10;;;;;;;17.27;9.70;;;;;;;;;;4405646;32;20137;-81
2021/07/08 06:13:23;;;;;;;17.62;10.98;;;;;;;;;;4404720;32;20146;-81
2021/07/08 06:15:28;;;;;;;17.08;9.35;;;;;;;;;;4393912;32;20232;-80
2021/07/08 06:17:56;;;;;;;16.52;10.05;;;;;;;;;;4388869;32;20201;-79
2021/07/08 06:20:46;;;;;;;14.93;9.30;;;;;;;;;;4392185;32;20162;-81
2021/07/08 06:23:21;;;;;;;;;;;;;;;;;;;;;
2021/07/08 06:25:51;;;;;;;14.45;10.25;;;;;;;;;;4393822;32;20165;-79
2021/07/08 06:28:16;;;;;;;11.75;9.57;;;;;;;;;;4390795;32;20178;-79
2021/07/08 06:30:42;;;;;;;16.00;9.23;;;;;;;;;;4398523;32;20204;-79
2021/07/08 06:33:11;;;;;;;15.32;10.57;;;;;;;;;;4395106;32;20482;-80
2021/07/08 06:35:40;;;;;;;14.35;9.65;;;;;;;;;;4405096;32;20130;-80
2021/07/08 06:38:14;;;;;;;13.45;8.90;;;;;;;;;;4405156;32;20135;-81
2021/07/08 06:40:39;;;;;;;14.13;9.77;;;;;;;;;;4405914;32;20117;-79
2021/07/08 06:43:05;;;;;;;12.67;8.73;;;;;;;;;;4404861;32;20454;-81
2021/07/08 06:45:36;;;;;;;11.50;7.30;;;;;;;;;;4404918;32;20234;-81
2021/07/08 06:48:04;;;;;;;9.02;6.28;;;;;;;;;;4391471;32;20154;-80
2021/07/08 06:50:41;;;;;;;15.05;7.70;;;;;;;;;;4405040;32;20130;-80
2021/07/08 06:53:11;;;;;;;9.35;5.68;;;;;;;;;;4391005;32;20192;-80
2021/07/08 06:55:37;;;;;;;11.82;6.60;;;;;;;;;;4404970;32;20142;-80
2021/07/08 06:58:12;;;;;;;11.52;6.20;;;;;;;;;;4391092;32;20189;-81
2021/07/08 07:00:56;;;;;;;7.43;5.07;;;;;;;;;;4404933;32;20149;-80
2021/07/08 07:03:34;;;;;;;6.40;4.95;;;;;;;;;;4404222;32;20142;-79
2021/07/08 07:06:55;;;;;;;7.90;5.25;;;;;;;;;;4391239;32;20510;-80
2021/07/08 07:09:31;;;;;;;9.50;5.50;;;;;;;;;;4385772;32;20198;-82
2021/07/08 07:12:04;;;;;;;4.95;3.70;;;;;;;;;;4342146;33;20170;-80
2021/07/08 07:14:32;;;;;;;5.85;4.05;;;;;;;;;;4394228;32;20230;-80
2021/07/08 07:16:59;;;;;;;6.97;4.57;;;;;;;;;;4407584;32;20181;-80
2021/07/08 07:19:37;;;;;;;4.32;3.83;;;;;;;;;;4401404;32;20146;-81
2021/07/08 07:22:02;;;;;;;6.65;3.50;;;;;;;;;;4392984;32;20157;-82
2021/07/08 07:24:33;;;;;;;6.62;3.30;;;;;;;;;;4393083;32;20484;-79
2021/07/08 07:27:02;;;;;;;6.15;3.37;;;;;;;;;;4392468;32;20208;-79
2021/07/08 07:29:34;;;;;;;4.20;3.42;;;;;;;;;;4402741;32;20629;-84
2021/07/08 07:32:00;;;;;;;7.22;3.53;;;;;;;;;;4408713;32;20133;-85
2021/07/08 07:34:25;;;;;;;4.20;3.10;;;;;;;;;;4408545;32;20220;-83
2021/07/08 07:37:02;;;;;;;6.40;3.12;;;;;;;;;;4407868;32;20134;-85
2021/07/08 07:39:32;;;;;;;6.20;3.03;;;;;;;;;;4392420;32;20174;-85
2021/07/08 07:41:57;;;;;;;5.25;3.37;;;;;;;;;;4390872;32;20149;-83
2021/07/08 07:47:10;;;;;;;6.28;3.17;;;;;;;;;;4402063;32;20184;-84
2021/07/08 07:49:39;;;;;;;5.62;3.92;;;;;;;;;;4407762;32;20173;-84
2021/07/08 07:52:08;;;;;;;4.82;2.80;;;;;;;;;;4407845;32;20135;-85
2021/07/08 07:54:33;;;;;;;5.05;2.60;;;;;;;;;;4407685;32;20511;-85
2021/07/08 07:57:05;;;;;;;4.50;3.00;;;;;;;;;;4403879;32;20173;-85
2021/07/08 07:59:30;;;;;;;3.67;2.47;;;;;;;;;;4393493;32;20165;-84
2021/07/08 08:01:55;;;;;;;4.85;2.97;;;;;;;;;;4397549;32;20138;-85
2021/07/08 08:04:23;;;;;;;5.82;2.97;;;;;;;;;;4393175;32;20139;-85
2021/07/08 08:09:36;;;;;;;5.05;2.53;;;;;;;;;;4392562;32;20504;-84
2021/07/08 08:12:07;;;;;;;4.50;2.10;;;;;;;;;;4392565;32;20168;-84
2021/07/08 08:14:38;;;;;;;4.25;2.08;;;;;;;;;;4391185;32;20247;-84
2021/07/08 08:17:03;;;;;;;4.05;2.05;;;;;;;;;;4392477;32;20139;-83
2021/07/08 08:19:29;;;;;;;3.12;2.20;;;;;;;;;;4392602;32;20146;-83
2021/07/08 08:22:02;;;;;;;3.80;2.78;;;;;;;;;;4392871;32;20139;-84
2021/07/08 08:24:29;;;;;;;4.57;2.50;;;;;;;;;;4393734;32;20142;-84
2021/07/08 08:26:55;;;;;;;2.87;2.00;;;;;;;;;;4393171;32;20197;-83
2021/07/08 08:29:26;;;;;;;5.62;3.20;;;;;;;;;;4393210;32;20151;-84
2021/07/08 08:31:51;;;;;;;4.15;2.20;;;;;;;;;;4393059;32;20168;-84
2021/07/08 08:34:37;;;;;;;7.62;4.00;;;;;;;;;;4397702;32;20155;-84
2021/07/08 08:37:05;;;;;;;3.60;1.92;;;;;;;;;;4390573;32;20174;-83
2021/07/08 08:39:30;;;;;;;3.45;2.20;;;;;;;;;;4390779;32;20163;-84
2021/07/08 08:41:56;;;;;;;3.80;2.10;;;;;;;;;;4391990;32;20428;-85
2021/07/08 08:44:21;;;;;;;4.25;2.20;;;;;;;;;;4396277;32;20204;-83
2021/07/08 08:46:47;;;;;;;3.95;2.40;;;;;;;;;;4393069;32;20174;-84
2021/07/08 08:49:28;;;;;;;3.53;2.10;;;;;;;;;;4395599;32;20215;-81
2021/07/08 08:52:01;;;;;;;2.47;2.05;;;;;;;;;;4377698;32;20174;-83
2021/07/08 08:54:36;;;;;;;4.28;2.20;;;;;;;;;;4391710;32;20134;-83
2021/07/08 08:57:02;;;;;;;2.72;1.85;;;;;;;;;;4391951;32;20138;-83
2021/07/08 08:59:27;;;;;;;3.17;2.37;;;;;;;;;;4394622;32;20606;-79
2021/07/08 09:02:12;;;;;;;3.42;2.17;;;;;;;;;;4406825;32;20173;-79
2021/07/08 09:04:37;;;;;;;5.65;2.17;;;;;;;;;;4406231;32;20154;-80
2021/07/08 09:07:22;;;;;;;2.90;2.00;;;;;;;;;;4396946;32;20212;-80
2021/07/08 09:09:47;;;;;;;4.97;2.42;;;;;;;;;;4390890;32;20182;-80
2021/07/08 09:12:13;;;;;;;3.28;2.20;;;;;;;;;;4390385;32;20585;-79
2021/07/08 09:14:39;;;;;;;5.07;2.30;;;;;;;;;;4391209;32;20168;-80
2021/07/08 09:17:14;;;;;;;3.85;2.15;;;;;;;;;;4389530;32;20515;-79
2021/07/08 09:19:39;;;;;;;5.18;3.00;;;;;;;;;;4391434;32;20142;-78
2021/07/08 09:22:08;;;;;;;5.80;2.25;;;;;;;;;;4390349;32;20208;-79
2021/07/08 09:24:34;;;;;;;4.70;2.47;;;;;;;;;;4390852;32;20174;-81
2021/07/08 09:27:12;;;;;;;3.53;2.20;;;;;;;;;;4391107;32;20161;-82
2021/07/08 09:29:45;;;;;;;5.30;2.37;;;;;;;;;;4390868;32;20139;-82
2021/07/08 09:32:14;;;;;;;2.65;2.45;;;;;;;;;;4399245;32;20563;-82
2021/07/08 09:34:40;;;;;;;6.22;2.55;;;;;;;;;;4405807;32;20169;-82
2021/07/08 09:37:07;;;;;;;4.12;2.33;;;;;;;;;;4391299;32;20162;-81
2021/07/08 09:39:39;;;;;;;6.10;2.65;;;;;;;;;;4386831;32;20244;-81
2021/07/08 09:42:04;;;;;;;7.78;3.95;;;;;;;;;;4390968;32;20130;-80
2021/07/08 09:44:30;;;;;;;4.85;2.75;;;;;;;;;;4393847;32;20196;-81
2021/07/08 09:46:56;;;;;;;5.18;2.87;;;;;;;;;;4405621;32;20486;-81
2021/07/08 09:49:22;;;;;;;4.65;2.75;;;;;;;;;;4405145;32;20602;-81
2021/07/08 09:51:50;;;;;;;4.57;2.97;;;;;;;;;;4402907;32;20158;-81
2021/07/08 09:54:44;;;;;;;4.47;2.90;;;;;;;;;;4399346;32;20214;-80
2021/07/08 09:57:41;;;;;;;4.72;3.12;;;;;;;;;;4397987;32;20234;-81
2021/07/08 10:00:18;;;;;;;5.82;3.33;;;;;;;;;;4399835;32;20158;-80
2021/07/08 10:03:19;;;;;;;3.45;2.80;;;;;;;;;;4400310;32;20157;-80
2021/07/08 10:06:45;;;;;;;3.50;2.80;;;;;;;;;;4325981;33;20239;-81
2021/07/08 10:08:39;;;;;;;5.60;2.95;;;;;;;;;;4385527;32;20227;-78
2021/07/08 10:11:08;;;;;;;3.83;2.97;;;;;;;;;;4399780;32;20198;-79
2021/07/08 10:13:48;;;;;;;6.35;3.55;;;;;;;;;;4395327;32;20157;-79
2021/07/08 10:16:20;;;;;;;6.87;3.40;;;;;;;;;;4389948;32;20225;-78
2021/07/08 10:18:46;;;;;;;4.85;3.22;;;;;;;;;;4381175;32;20224;-79
2021/07/08 10:21:12;;;;;;;6.53;3.72;;;;;;;;;;4383141;32;20658;-82
2021/07/08 10:23:40;;;;;;;5.18;3.35;;;;;;;;;;4388046;32;20154;-81
2021/07/08 10:26:07;;;;;;;6.25;3.80;;;;;;;;;;4381378;32;20201;-80
2021/07/08 10:28:41;;;;;;;5.68;3.83;;;;;;;;;;4380283;32;20221;-78
2021/07/08 10:31:06;;;;;;;4.50;3.80;;;;;;;;;;4382223;32;20236;-78
2021/07/08 10:33:34;;;;;;;5.32;3.70;;;;;;;;;;4373169;32;20217;-79
2021/07/08 10:36:09;;;;;;;5.80;3.62;;;;;;;;;;4384775;32;20671;-79
2021/07/08 10:38:35;;;;;;;4.80;3.55;;;;;;;;;;4380451;32;20228;-79
2021/07/08 10:41:01;;;;;;;7.37;3.75;;;;;;;;;;4369469;32;20220;-78
2021/07/08 10:43:42;;;;;;;6.35;3.50;;;;;;;;;;4378910;32;20224;-79
2021/07/08 10:46:33;;;;;;;4.35;3.40;;;;;;;;;;4382714;32;20153;-78
2021/07/08 10:49:09;;;;;;;5.25;4.20;;;;;;;;;;4379692;32;20295;-78
2021/07/08 10:54:55;;;;;;;7.53;4.20;;;;;;;;;;4340585;32;20170;-77
2021/07/08 10:58:14;;;;;;;7.78;4.12;;;;;;;;;;4395077;32;20208;-80
2021/07/08 11:01:06;;;;;;;7.68;3.90;;;;;;;;;;4321360;33;20221;-80
2021/07/08 11:04:02;;;;;;;5.10;3.58;;;;;;;;;;4323291;33;20367;-81
2021/07/08 11:06:31;;;;;;;4.18;3.42;;;;;;;;;;4301492;33;20199;-82
2021/07/08 11:09:17;;;;;;;5.25;3.75;;;;;;;;;;4351289;32;20307;-81
2021/07/08 11:11:45;;;;;;;4.87;3.75;;;;;;;;;;4378715;32;20210;-82
2021/07/08 11:14:19;;;;;;;5.40;3.80;;;;;;;;;;4377999;32;20227;-79
2021/07/08 11:16:47;;;;;;;4.78;3.70;;;;;;;;;;4371748;32;20222;-79
2021/07/08 11:19:16;;;;;;;5.30;4.28;;;;;;;;;;4375307;32;20182;-78
2021/07/08 11:22:11;;;;;;;4.05;2.90;;;;;;;;;;4373569;32;20228;-81
2021/07/08 11:24:47;;;;;;;6.50;3.83;;;;;;;;;;4372115;32;20193;-81
2021/07/08 11:27:35;;;;;;;6.50;4.30;;;;;;;;;;4377699;32;20201;-83
2021/07/08 11:30:24;;;;;;;5.78;3.40;;;;;;;;;;4376176;32;20196;-81
2021/07/08 11:35:56;;;;;;;5.80;3.05;;;;;;;;;;4358681;32;20165;-81
2021/07/08 11:38:25;;;;;;;6.47;3.40;;;;;;;;;;4387899;32;20146;-81
2021/07/08 11:40:57;;;;;;;5.22;3.28;;;;;;;;;;4390771;32;20139;-82
2021/07/08 11:43:32;;;;;;;4.78;3.75;;;;;;;;;;4388475;32;20150;-80
2021/07/08 11:46:12;;;;;;;7.37;5.12;;;;;;;;;;4390218;32;20231;-80
2021/07/08 11:48:44;;;;;;;6.18;3.87;;;;;;;;;;4382400;32;20217;-80
2021/07/08 11:51:14;;;;;;;5.57;4.30;;;;;;;;;;4375865;32;20204;-80
2021/07/08 11:53:40;;;;;;;6.78;4.60;;;;;;;;;;4372711;32;20228;-79
2021/07/08 11:56:09;;;;;;;5.97;4.50;;;;;;;;;;4378235;32;20182;-79
2021/07/08 11:58:34;;;;;;;6.35;3.62;;;;;;;;;;4372762;32;20170;-79
2021/07/08 12:01:11;;;;;;;5.82;4.18;;;;;;;;;;4383943;32;20180;-82
2021/07/08 12:03:41;;;;;;;4.85;3.35;;;;;;;;;;4391839;32;20432;-82
2021/07/08 12:06:21;;;;;;;6.95;4.32;;;;;;;;;;4386714;32;20201;-83
2021/07/08 12:08:53;;;;;;;6.60;3.87;;;;;;;;;;4389842;32;20184;-80
2021/07/08 12:11:58;;;;;;;5.93;4.00;;;;;;;;;;4384213;32;20285;-80
2021/07/08 12:14:24;;;;;;;9.85;3.75;;;;;;;;;;4386140;32;20221;-81
2021/07/08 12:16:52;;;;;;;4.93;3.40;;;;;;;;;;4374291;32;20209;-79
2021/07/08 12:19:22;;;;;;;5.93;4.03;;;;;;;;;;4386812;32;20150;-81
2021/07/08 12:21:48;;;;;;;6.28;3.67;;;;;;;;;;4386904;32;20224;-81
2021/07/08 12:24:25;;;;;;;5.28;3.20;;;;;;;;;;4386265;32;20210;-81
2021/07/08 12:26:51;;;;;;;6.75;3.10;;;;;;;;;;4387649;32;20262;-80
2021/07/08 12:29:24;;;;;;;6.80;3.97;;;;;;;;;;4376328;32;20221;-81
2021/07/08 12:32:00;;;;;;;5.97;3.85;;;;;;;;;;4388796;32;20210;-81
2021/07/08 12:34:28;;;;;;;6.05;3.80;;;;;;;;;;4385600;32;20161;-79
2021/07/08 12:36:53;;;;;;;7.82;3.80;;;;;;;;;;4391360;32;20565;-81
2021/07/08 12:39:26;;;;;;;6.70;3.15;;;;;;;;;;4400774;32;20142;-82
2021/07/08 12:41:51;;;;;;;6.28;3.65;;;;;;;;;;4400865;32;20151;-80
2021/07/08 12:44:17;;;;;;;5.07;3.90;;;;;;;;;;4403320;32;20158;-80
2021/07/08 12:46:43;;;;;;;6.37;4.00;;;;;;;;;;4406858;32;20166;-80
2021/07/08 12:49:09;;;;;;;7.78;4.25;;;;;;;;;;4391849;32;20153;-81
2021/07/08 12:51:41;;;;;;;7.85;4.15;;;;;;;;;;4406222;32;20161;-81
2021/07/08 12:54:06;;;;;;;6.32;4.05;;;;;;;;;;4392407;32;20166;-81
2021/07/08 12:56:43;;;;;;;6.62;4.00;;;;;;;;;;4406171;32;20204;-82
2021/07/08 12:59:15;;;;;;;6.75;3.75;;;;;;;;;;4406029;32;20159;-80
2021/07/08 13:01:40;;;;;;;7.12;3.80;;;;;;;;;;4406486;32;20160;-80
2021/07/08 13:04:11;;;;;;;6.65;2.90;;;;;;;;;;4406538;32;20134;-80
2021/07/08 13:07:00;;;;;;;4.62;3.55;;;;;;;;;;4406646;32;20131;-82
2021/07/08 13:09:28;;;;;;;6.10;3.42;;;;;;;;;;4406487;32;20466;-80
2021/07/08 13:11:57;;;;;;;6.72;3.75;;;;;;;;;;4405828;32;20166;-79
2021/07/08 13:14:24;;;;;;;6.10;3.83;;;;;;;;;;4407197;32;20209;-82
2021/07/08 13:17:05;;;;;;;6.72;3.35;;;;;;;;;;4400496;32;20158;-81
2021/07/08 13:19:31;;;;;;;6.20;3.08;;;;;;;;;;4377620;32;20170;-82
2021/07/08 13:21:56;;;;;;;5.80;3.25;;;;;;;;;;4392119;32;20131;-82
2021/07/08 13:24:22;;;;;;;5.82;3.40;;;;;;;;;;4391972;32;20169;-80
2021/07/08 13:26:48;;;;;;;4.50;3.75;;;;;;;;;;4392105;32;20149;-81
2021/07/08 13:29:13;;;;;;;7.78;3.78;;;;;;;;;;4391824;32;20127;-80
2021/07/08 13:31:39;;;;;;;5.25;4.00;;;;;;;;;;4390935;32;20487;-81
2021/07/08 13:34:07;;;;;;;6.82;3.80;;;;;;;;;;4391038;32;20130;-81
2021/07/08 13:36:41;;;;;;;7.43;3.97;;;;;;;;;;4377750;32;20576;-82
2021/07/08 13:39:16;;;;;;;4.97;3.78;;;;;;;;;;4392315;32;20164;-81
2021/07/08 13:42:02;;;;;;;5.87;3.20;;;;;;;;;;4406804;32;20126;-81
2021/07/08 13:44:30;;;;;;;6.30;2.80;;;;;;;;;;4406578;32;20308;-80
2021/07/08 13:46:59;;;;;;;6.35;2.90;;;;;;;;;;4406201;32;20135;-77
2021/07/08 13:52:22;;;;;;;5.32;3.00;;;;;;;;;;4394814;32;20578;-81
2021/07/08 13:54:50;;;;;;;5.80;3.22;;;;;;;;;;4390810;32;20130;-81
2021/07/08 13:57:18;;;;;;;4.30;2.80;;;;;;;;;;4389305;32;20159;-81
2021/07/08 13:59:44;;;;;;;5.78;2.62;;;;;;;;;;4390381;32;20209;-77
2021/07/08 14:02:10;;;;;;;3.75;2.70;;;;;;;;;;4390669;32;20127;-81
2021/07/08 14:04:35;;;;;;;4.43;2.60;;;;;;;;;;4390663;32;20180;-82
2021/07/08 14:07:03;;;;;;;5.33;2.90;;;;;;;;;;4389669;32;20540;-80
2021/07/08 14:09:28;;;;;;;4.35;2.70;;;;;;;;;;4390562;32;20227;-80
2021/07/08 14:12:09;;;;;;;4.62;2.60;;;;;;;;;;4390569;32;20131;-82
2021/07/08 14:14:37;;;;;;;4.62;2.70;;;;;;;;;;4390757;32;20157;-80
2021/07/08 14:17:03;;;;;;;4.85;2.47;;;;;;;;;;4397712;32;20218;-80
2021/07/08 14:19:28;;;;;;;4.40;2.70;;;;;;;;;;4405170;32;20198;-82
2021/07/08 14:21:54;;;;;;;8.75;3.30;;;;;;;;;;4391360;32;20591;-82
2021/07/08 14:24:40;;;;;;;6.47;2.97;;;;;;;;;;4391802;32;20591;-81
2021/07/08 14:27:05;;;;;;;7.07;3.10;;;;;;;;;;4392015;32;20157;-82
2021/07/08 14:29:30;;;;;;;4.45;2.80;;;;;;;;;;4405091;32;20174;-83
2021/07/08 14:32:04;;;;;;;7.20;2.90;;;;;;;;;;4405018;32;20161;-81
2021/07/08 14:34:29;;;;;;;6.03;3.00;;;;;;;;;;4391684;32;20207;-82
2021/07/08 14:36:56;;;;;;;4.78;3.15;;;;;;;;;;4405040;32;20494;-79
2021/07/08 14:39:21;;;;;;;6.57;3.37;;;;;;;;;;4405302;32;20135;-83
2021/07/08 14:41:49;;;;;;;6.83;3.33;;;;;;;;;;4385011;32;20184;-80
2021/07/08 14:44:27;;;;;;;5.97;3.35;;;;;;;;;;4390033;32;20138;-80
2021/07/08 14:46:54;;;;;;;6.37;3.45;;;;;;;;;;4390071;32;20637;-80
2021/07/08 14:49:20;;;;;;;7.30;3.22;;;;;;;;;;4389575;32;20165;-80
2021/07/08 14:51:45;;;;;;;5.43;3.30;;;;;;;;;;4390019;32;20127;-79
2021/07/08 14:54:11;;;;;;;4.30;2.70;;;;;;;;;;4390339;32;20126;-82
2021/07/08 14:56:43;;;;;;;4.50;2.65;;;;;;;;;;4390058;32;20200;-80
2021/07/08 14:59:09;;;;;;;3.35;2.55;;;;;;;;;;4390215;32;20180;-81
2021/07/08 15:01:34;;;;;;;5.80;2.83;;;;;;;;;;4388861;32;20155;-80
2021/07/08 15:03:59;;;;;;;3.42;2.80;;;;;;;;;;4389861;32;20224;-79
2021/07/08 15:06:25;;;;;;;4.73;2.70;;;;;;;;;;4396730;32;20483;-80
2021/07/08 15:08:53;;;;;;;3.62;2.50;;;;;;;;;;4404717;32;20313;-82
2021/07/08 15:11:18;;;;;;;4.50;3.15;;;;;;;;;;4404631;32;20180;-79
2021/07/08 15:13:43;;;;;;;5.85;3.20;;;;;;;;;;4404767;32;20443;-78
2021/07/08 15:16:09;;;;;;;6.47;3.17;;;;;;;;;;4404397;32;20134;-79
2021/07/08 15:18:38;;;;;;;5.20;3.00;;;;;;;;;;4405340;32;20248;-81
2021/07/08 15:21:04;;;;;;;4.93;3.30;;;;;;;;;;4390917;32;20209;-79
2021/07/08 15:23:29;;;;;;;5.80;3.08;;;;;;;;;;4376140;32;20162;-79